Time;durP1;ratioP1;P1;durP2;ratioP2;P2;SDS_P1;SDS_P2;PMS_P1;PMS_P2;Temp;Humidity;BMP_temperature;BMP_pressure;BME280_temperature;BME280_humidity;BME280_pressure;Samples;Min_cycle;Max_cycle;Signal;HPM_P1;HPM_P2
2021/12/22 00:00:12;;;;;;;2.22;1.08;;;-5.90;1.40;;;-5.17;100.00;96030.63;647955;216;31535;-75
2021/12/22 00:02:54;;;;;;;3.12;2.12;;;-6.00;1.40;;;-5.34;100.00;96038.73;650181;216;31581;-75
2021/12/22 00:05:43;;;;;;;4.00;1.90;;;-6.10;1.40;;;-5.32;100.00;96029.27;643288;216;42373;-74
2021/12/22 00:08:18;;;;;;;2.00;1.10;;;-6.00;1.40;;;-5.27;100.00;96033.83;649065;212;31594;-73
2021/12/22 00:10:59;;;;;;;1.98;1.40;;;-6.00;1.40;;;-5.39;100.00;96040.13;647854;216;31600;-74
2021/12/22 00:13:41;;;;;;;9.43;2.70;;;-6.20;1.40;;;-5.25;100.00;96044.02;650045;216;31560;-74
2021/12/22 00:16:22;;;;;;;6.70;2.30;;;-6.10;1.40;;;-5.11;100.00;96039.63;648293;216;31561;-75
2021/12/22 00:19:05;;;;;;;4.80;1.75;;;-5.90;1.40;;;-5.06;100.00;96038.68;649561;216;31538;-75
2021/12/22 00:21:47;;;;;;;1.50;1.40;;;-5.90;1.40;;;-5.01;100.00;96039.84;647608;212;31684;-75
2021/12/22 00:24:28;;;;;;;2.70;1.60;;;-5.90;1.40;;;-4.91;100.00;96044.97;648736;212;31925;-75
2021/12/22 00:27:10;;;;;;;3.35;1.02;;;-5.90;1.40;;;-5.04;100.00;96045.16;647234;213;31599;-75
2021/12/22 00:29:52;;;;;;;2.00;1.33;;;-5.90;1.40;;;-5.30;100.00;96052.33;651135;212;31538;-75
2021/12/22 00:32:36;;;;;;;4.47;1.83;;;-6.00;1.40;;;-5.37;100.00;96053.08;648909;216;31850;-74
2021/12/22 00:35:52;;;;;;;3.40;1.70;;;-6.10;1.40;;;-5.39;100.00;96054.77;647498;216;31554;-75
2021/12/22 00:38:36;;;;;;;2.50;1.60;;;-6.10;1.40;;;-5.36;100.00;96053.41;648531;216;34548;-75
2021/12/22 00:41:18;;;;;;;2.67;1.45;;;-6.10;1.40;;;-5.28;100.00;96051.73;647615;216;42211;-75
2021/12/22 00:44:00;;;;;;;2.60;1.50;;;-6.00;1.40;;;-5.19;100.00;96058.58;647547;216;31577;-75
2021/12/22 00:49:19;;;;;;;2.00;1.65;;;-5.80;1.40;;;-5.01;100.00;96046.50;619264;226;31913;-75
2021/12/22 00:52:00;;;;;;;1.70;1.60;;;-5.80;1.40;;;-4.73;100.00;96044.22;632525;220;31637;-75
2021/12/22 00:54:42;;;;;;;2.50;1.60;;;-5.70;1.40;;;-4.63;100.00;96045.72;648420;216;31561;-74
2021/12/22 00:57:24;;;;;;;5.10;1.87;;;-5.60;1.40;;;-4.56;100.00;96045.97;645999;216;31712;-75
2021/12/22 01:00:07;;;;;;;3.60;1.40;;;-5.50;1.40;;;-4.47;100.00;96048.35;647246;216;31685;-73
2021/12/22 01:02:52;;;;;;;1.37;1.27;;;-5.50;1.40;;;-4.60;100.00;96053.22;647297;216;31487;-74
2021/12/22 01:05:34;;;;;;;5.40;2.20;;;-5.60;1.40;;;-4.53;100.00;96056.17;642494;212;31694;-75
2021/12/22 01:08:19;;;;;;;3.40;1.12;;;-5.60;1.40;;;-4.59;100.00;96055.89;649858;216;31606;-75
2021/12/22 01:11:00;;;;;;;1.65;1.55;;;-5.60;1.40;;;-4.53;100.00;96060.36;650513;212;31715;-74
2021/12/22 01:13:45;;;;;;;6.50;1.70;;;-5.60;1.40;;;-4.44;100.00;96064.23;644804;212;42288;-73
2021/12/22 01:16:27;;;;;;;3.30;1.75;;;-5.60;1.40;;;-4.42;100.00;96071.95;648502;212;31639;-75
2021/12/22 01:19:15;;;;;;;1.27;1.25;;;-5.60;1.40;;;-4.49;100.00;96075.96;650310;212;31597;-75
2021/12/22 01:22:03;;;;;;;3.58;1.70;;;-5.60;1.40;;;-4.49;100.00;96075.30;646497;215;41868;-75
2021/12/22 01:24:36;;;;;;;1.10;1.10;;;-5.60;1.40;;;-4.64;100.00;96076.63;649811;212;31787;-75
2021/12/22 01:27:24;;;;;;;3.92;1.52;;;-5.70;1.40;;;-4.80;100.00;96081.19;648083;216;31502;-74
2021/12/22 01:30:00;;;;;;;3.25;2.28;;;-5.80;1.40;;;-4.81;100.00;96081.72;647834;216;31524;-75
2021/12/22 01:32:42;;;;;;;1.20;1.10;;;-5.80;1.40;;;-4.66;100.00;96083.51;644557;216;31596;-75
2021/12/22 01:35:51;;;;;;;3.58;1.50;;;-5.70;1.40;;;-4.81;100.00;96089.52;647150;212;31626;-74
2021/12/22 01:38:33;;;;;;;0.80;0.80;;;-5.80;1.40;;;-4.93;100.00;96091.84;647581;212;31526;-75
2021/12/22 01:41:16;;;;;;;1.83;1.50;;;-5.90;1.40;;;-5.06;100.00;96091.70;646466;212;31528;-75
2021/12/22 01:43:57;;;;;;;3.30;1.50;;;-5.90;1.40;;;-4.95;100.00;96086.44;648257;216;31641;-75
2021/12/22 01:49:50;;;;;;;5.25;2.00;;;-5.90;1.40;;;-5.41;100.00;96081.19;651210;216;31607;-75
2021/12/22 01:52:31;;;;;;;2.90;0.90;;;-5.90;1.40;;;-5.41;100.00;96076.98;650817;212;31597;-75
2021/12/22 01:55:25;;;;;;;3.30;1.50;;;-6.00;1.40;;;-5.38;100.00;96076.91;651961;212;31582;-75
2021/12/22 01:58:01;;;;;;;1.65;0.90;;;-6.00;1.40;;;-5.57;100.00;96075.49;645918;212;31709;-74
2021/12/22 02:00:43;;;;;;;2.08;1.40;;;-6.10;1.40;;;-5.56;100.00;96069.14;620977;226;45796;-74
2021/12/22 02:03:25;;;;;;;1.60;1.20;;;-6.20;1.40;;;-5.79;100.00;96070.82;648987;216;42508;-75
2021/12/22 02:06:08;;;;;;;0.90;0.90;;;-6.20;1.40;;;-5.87;100.00;96062.00;648497;212;31692;-75
2021/12/22 02:08:48;;;;;;;2.17;1.58;;;-6.20;1.40;;;-5.89;100.00;96058.98;648207;216;31754;-74
2021/12/22 02:11:30;;;;;;;1.70;1.20;;;-6.20;1.40;;;-5.77;100.00;96059.87;646679;216;31603;-74
2021/12/22 02:14:14;;;;;;;4.80;1.30;;;-6.20;1.40;;;-5.85;100.00;96061.80;647121;213;31594;-75
2021/12/22 02:16:56;;;;;;;5.70;1.80;;;-6.20;1.40;;;-5.64;100.00;96068.44;647862;212;42205;-74
2021/12/22 02:19:46;;;;;;;1.30;1.20;;;-6.20;1.40;;;-5.75;100.00;96069.14;648338;216;31560;-75
2021/12/22 02:22:31;;;;;;;1.50;1.40;;;-6.30;1.40;;;-5.84;100.00;96065.48;621088;222;31917;-75
2021/12/22 02:25:18;;;;;;;2.10;1.20;;;-6.40;1.40;;;-5.92;100.00;96062.15;646992;212;42184;-75
2021/12/22 02:27:55;;;;;;;1.40;1.05;;;-6.30;1.40;;;-5.89;100.00;96064.55;647708;216;34657;-75
2021/12/22 02:30:39;;;;;;;1.50;1.40;;;-6.30;1.40;;;-5.95;100.00;96069.31;647526;212;32215;-75
2021/12/22 02:36:06;;;;;;;1.30;1.20;;;-6.40;1.40;;;-6.10;100.00;96071.61;646964;212;31838;-75
2021/12/22 02:38:39;;;;;;;6.23;2.40;;;-6.40;1.40;;;-6.06;100.00;96073.06;647372;216;31778;-74
2021/12/22 02:41:22;;;;;;;2.97;1.90;;;-6.40;1.40;;;-6.04;100.00;96081.42;645922;212;32019;-74
2021/12/22 02:44:03;;;;;;;2.20;1.50;;;-6.40;1.40;;;-5.87;100.00;96080.12;645910;216;42138;-74
2021/12/22 02:46:46;;;;;;;3.58;1.30;;;-6.40;1.40;;;-6.02;100.00;96076.02;647304;212;31577;-75
2021/12/22 02:49:28;;;;;;;1.12;1.10;;;-6.30;1.40;;;-6.01;100.00;96076.58;650594;212;31633;-75
2021/12/22 02:52:13;;;;;;;2.10;1.90;;;-6.30;1.40;;;-5.91;100.00;96075.84;649998;213;31551;-75
2021/12/22 02:54:56;;;;;;;1.37;1.27;;;-6.30;1.40;;;-5.91;100.00;96083.22;649514;216;31676;-75
2021/12/22 02:57:44;;;;;;;1.42;1.25;;;-6.30;1.40;;;-5.92;100.00;96072.64;647317;212;42833;-74
2021/12/22 03:00:35;;;;;;;10.85;2.30;;;-6.40;1.40;;;-5.89;100.00;96074.69;647136;212;31508;-75
2021/12/22 03:03:15;;;;;;;2.05;1.00;;;-6.40;1.40;;;-6.11;100.00;96066.31;652002;216;31548;-74
2021/12/22 03:05:52;;;;;;;4.20;1.92;;;-6.40;1.40;;;-6.15;100.00;96058.27;643654;216;31738;-74
2021/12/22 03:08:36;;;;;;;2.67;1.30;;;-6.40;1.40;;;-6.16;100.00;96065.09;650186;212;42804;-76
2021/12/22 03:11:18;;;;;;;5.28;1.73;;;-6.60;1.40;;;-6.26;100.00;96066.13;646707;216;31574;-74
2021/12/22 03:14:01;;;;;;;4.30;1.50;;;-6.70;1.40;;;-6.32;100.00;96065.02;619510;226;32158;-75
2021/12/22 03:16:42;;;;;;;2.00;1.85;;;-6.60;1.40;;;-6.36;100.00;96070.42;647619;212;32384;-75
2021/12/22 03:19:26;;;;;;;1.80;1.10;;;-6.80;1.40;;;-6.26;100.00;96082.69;649001;216;32401;-74
2021/12/22 03:22:11;;;;;;;1.30;0.98;;;-6.90;1.40;;;-6.31;100.00;96080.09;650494;216;31669;-75
2021/12/22 03:24:52;;;;;;;2.85;1.30;;;-6.90;1.40;;;-6.29;100.00;96083.95;647306;212;42202;-75
2021/12/22 03:27:36;;;;;;;2.20;1.60;;;-7.00;1.40;;;-6.13;100.00;96083.16;652390;216;31608;-75
2021/12/22 03:30:18;;;;;;;1.42;1.30;;;-6.90;1.40;;;-6.19;100.00;96075.10;617879;226;32046;-75
2021/12/22 03:33:00;;;;;;;2.60;1.75;;;-7.00;1.40;;;-6.15;100.00;96075.84;646164;216;31588;-74
2021/12/22 03:35:51;;;;;;;1.73;1.55;;;-7.00;1.40;;;-6.24;100.00;96076.81;648348;216;31563;-75
2021/12/22 03:38:36;;;;;;;2.25;2.10;;;-7.10;1.40;;;-6.43;100.00;96073.10;647010;216;31849;-75
2021/12/22 03:41:18;;;;;;;2.30;1.80;;;-7.20;1.40;;;-6.50;100.00;96066.23;645499;212;31606;-75
2021/12/22 03:44:04;;;;;;;3.17;2.12;;;-7.20;1.40;;;-6.54;100.00;96061.78;649455;216;31925;-74
2021/12/22 03:46:45;;;;;;;1.80;1.70;;;-7.30;1.40;;;-6.64;100.00;96069.00;647742;216;31714;-74
2021/12/22 03:49:27;;;;;;;5.20;1.83;;;-7.50;1.40;;;-6.92;100.00;96070.78;646425;216;31994;-75
2021/12/22 03:52:09;;;;;;;2.47;1.48;;;-7.50;1.40;;;-6.89;100.00;96070.16;646647;212;31673;-74
2021/12/22 03:54:54;;;;;;;3.20;1.70;;;-7.60;1.40;;;-6.89;100.00;96069.88;645810;216;31568;-75
2021/12/22 03:57:32;;;;;;;3.40;1.65;;;-7.50;1.40;;;-7.08;100.00;96067.13;646196;216;31560;-75
2021/12/22 04:00:15;;;;;;;1.52;1.42;;;-7.40;1.40;;;-7.11;100.00;96072.27;618188;222;31875;-75
2021/12/22 04:02:56;;;;;;;2.03;1.83;;;-7.50;1.40;;;-7.21;100.00;96072.98;649077;216;31607;-74
2021/12/22 04:05:38;;;;;;;3.50;1.50;;;-7.60;1.40;;;-7.22;100.00;96077.19;647810;216;31792;-74
2021/12/22 04:08:20;;;;;;;3.05;1.02;;;-7.50;1.40;;;-7.20;100.00;96083.72;617929;226;31995;-76
2021/12/22 04:13:36;;;;;;;2.20;1.27;;;-7.80;1.40;;;-7.31;100.00;96082.17;647394;212;31579;-74
2021/12/22 04:16:17;;;;;;;1.60;1.50;;;-7.80;1.40;;;-7.38;100.00;96080.70;646525;216;31565;-75
2021/12/22 04:18:59;;;;;;;2.33;1.55;;;-7.90;1.40;;;-7.34;100.00;96083.02;646697;216;31529;-74
2021/12/22 04:21:41;;;;;;;1.90;1.48;;;-7.80;1.40;;;-7.09;100.00;96091.02;646909;216;31562;-74
2021/12/22 04:24:23;;;;;;;1.80;1.60;;;-7.80;1.40;;;-7.33;100.00;96088.91;648134;212;31583;-75
2021/12/22 04:27:07;;;;;;;0.73;0.73;;;-7.90;1.40;;;-7.40;100.00;96097.59;646045;212;31551;-73
2021/12/22 04:29:49;;;;;;;1.80;1.20;;;-7.90;1.40;;;-7.49;100.00;96097.86;651053;216;31611;-74
2021/12/22 04:32:31;;;;;;;6.75;2.22;;;-8.00;1.40;;;-7.60;100.00;96096.89;649337;216;31949;-74
2021/12/22 04:35:55;;;;;;;5.18;2.33;;;-8.10;1.40;;;-7.54;100.00;96100.44;644650;216;31564;-75
2021/12/22 04:38:35;;;;;;;1.70;1.60;;;-8.10;1.40;;;-7.69;100.00;96102.12;652868;216;31531;-74
2021/12/22 04:41:17;;;;;;;1.10;0.70;;;-8.30;1.40;;;-7.79;100.00;96097.41;647640;216;31527;-74
2021/12/22 04:43:59;;;;;;;3.30;1.10;;;-8.30;1.40;;;-7.86;100.00;96098.17;649518;216;31566;-74
2021/12/22 04:46:40;;;;;;;1.10;1.00;;;-8.40;1.40;;;-7.76;100.00;96093.61;619598;226;31907;-74
2021/12/22 04:49:22;;;;;;;5.37;2.40;;;-8.40;1.40;;;-7.82;100.00;96103.72;645648;216;32282;-74
2021/12/22 04:52:07;;;;;;;1.33;1.25;;;-8.40;1.40;;;-7.72;100.00;96103.33;620855;226;32012;-74
2021/12/22 04:55:02;;;;;;;1.10;1.00;;;-8.30;1.40;;;-7.55;100.00;96100.26;646273;216;31585;-74
2021/12/22 04:57:30;;;;;;;1.48;1.00;;;-8.10;1.40;;;-7.61;100.00;96101.33;649008;216;31547;-74
2021/12/22 05:00:12;;;;;;;2.90;1.33;;;-8.10;1.40;;;-7.75;100.00;96102.05;647483;216;42441;-74
2021/12/22 05:02:54;;;;;;;3.90;1.50;;;-8.30;1.40;;;-7.84;100.00;96105.70;653615;212;31541;-74
2021/12/22 05:05:35;;;;;;;2.72;1.42;;;-8.40;1.40;;;-7.97;100.00;96101.49;641191;212;31707;-74
2021/12/22 05:08:18;;;;;;;1.65;1.55;;;-8.40;1.40;;;-8.07;100.00;96097.16;647607;212;31524;-74
2021/12/22 05:11:00;;;;;;;1.40;1.12;;;-8.50;1.40;;;-8.03;100.00;96103.94;646503;216;31533;-75
2021/12/22 05:13:42;;;;;;;1.80;1.50;;;-8.50;1.40;;;-8.10;100.00;96103.98;647043;216;31697;-75
2021/12/22 05:16:27;;;;;;;1.20;1.10;;;-8.60;1.40;;;-8.07;100.00;96099.33;649597;212;31521;-74
2021/12/22 05:19:14;;;;;;;1.65;1.45;;;-8.40;1.40;;;-8.10;100.00;96098.47;646535;216;31578;-74
2021/12/22 05:21:51;;;;;;;2.40;1.50;;;-8.50;1.40;;;-7.97;100.00;96099.89;647940;216;31807;-74
2021/12/22 05:24:33;;;;;;;2.80;1.20;;;-8.50;1.40;;;-7.95;100.00;96097.86;645889;212;31584;-74
2021/12/22 05:27:24;;;;;;;3.70;2.17;;;-8.40;1.40;;;-7.98;100.00;96098.06;646972;216;31574;-76
2021/12/22 05:30:12;;;;;;;3.70;2.25;;;-8.40;1.40;;;-7.94;100.00;96101.67;649294;216;32165;-74
2021/12/22 05:32:55;;;;;;;2.05;1.45;;;-8.50;1.40;;;-7.95;100.00;96103.39;619433;222;31842;-74
2021/12/22 05:35:52;;;;;;;1.90;1.12;;;-8.60;1.40;;;-7.98;100.00;96105.57;647216;212;31572;-74
2021/12/22 05:38:34;;;;;;;1.70;0.85;;;-8.50;1.40;;;-8.05;100.00;96110.12;646514;216;42350;-75
2021/12/22 05:41:18;;;;;;;1.10;1.00;;;-8.50;1.40;;;-8.07;100.00;96113.91;648282;213;31555;-75
2021/12/22 05:44:00;;;;;;;2.65;1.20;;;-8.50;1.40;;;-8.04;100.00;96106.90;645847;212;31745;-75
2021/12/22 05:46:42;;;;;;;3.55;1.35;;;-8.60;1.40;;;-8.00;100.00;96104.98;645545;212;31531;-74
2021/12/22 05:49:23;;;;;;;2.70;1.58;;;-8.60;1.40;;;-7.95;100.00;96102.26;648733;212;31501;-74
2021/12/22 05:52:05;;;;;;;4.55;2.05;;;-8.50;1.40;;;-7.96;100.00;96104.67;646486;216;31593;-75
2021/12/22 05:54:50;;;;;;;1.33;1.23;;;-8.50;1.40;;;-7.98;100.00;96105.94;646352;216;32363;-74
2021/12/22 05:57:32;;;;;;;1.20;0.70;;;-8.50;1.40;;;-7.67;100.00;96103.61;648375;216;31633;-74
2021/12/22 06:00:14;;;;;;;2.37;2.17;;;-8.30;1.40;;;-7.72;100.00;96106.69;645389;216;31526;-75
2021/12/22 06:02:57;;;;;;;3.70;2.00;;;-8.30;1.40;;;-7.52;100.00;96107.41;646440;217;31572;-74
2021/12/22 06:05:38;;;;;;;2.78;1.98;;;-8.10;1.40;;;-7.40;100.00;96105.85;643999;212;31659;-74
2021/12/22 06:08:20;;;;;;;3.60;1.70;;;-8.00;1.40;;;-7.37;100.00;96107.92;647059;213;31553;-75
2021/12/22 06:11:01;;;;;;;1.85;1.75;;;-7.90;1.40;;;-7.14;100.00;96108.52;646621;216;31609;-75
2021/12/22 06:13:43;;;;;;;1.80;1.50;;;-7.80;1.40;;;-7.06;100.00;96111.09;622640;226;32031;-75
2021/12/22 06:16:25;;;;;;;3.70;1.80;;;-7.60;1.40;;;-6.96;100.00;96099.59;646913;216;31601;-75
2021/12/22 06:19:09;;;;;;;3.47;1.73;;;-7.50;1.40;;;-6.86;100.00;96093.59;649031;216;42352;-74
2021/12/22 06:21:49;;;;;;;4.05;1.00;;;-7.30;1.40;;;-6.66;100.00;96096.75;648770;212;31562;-75
2021/12/22 06:24:30;;;;;;;2.40;1.58;;;-7.20;1.40;;;-6.41;100.00;96091.51;645264;216;31518;-75
2021/12/22 06:27:15;;;;;;;3.67;1.40;;;-7.00;1.40;;;-6.31;100.00;96091.78;644315;212;31569;-74
2021/12/22 06:29:57;;;;;;;1.17;0.95;;;-6.80;1.40;;;-6.26;100.00;96092.18;645759;216;31602;-75
2021/12/22 06:32:39;;;;;;;1.30;0.85;;;-6.80;1.40;;;-6.06;100.00;96097.45;645470;216;42154;-75
2021/12/22 06:35:53;;;;;;;1.60;1.00;;;-6.60;1.40;;;-5.83;100.00;96094.30;649577;216;32170;-74
2021/12/22 06:38:35;;;;;;;1.90;1.30;;;-6.50;1.40;;;-5.77;100.00;96096.75;649321;216;31598;-75
2021/12/22 06:41:19;;;;;;;2.00;1.20;;;-6.40;1.40;;;-5.64;100.00;96097.37;645950;216;31565;-74
2021/12/22 06:44:01;;;;;;;3.30;1.70;;;-6.20;1.40;;;-5.37;100.00;96098.11;648153;212;31552;-75
2021/12/22 06:47:02;;;;;;;4.72;1.30;;;-6.00;1.40;;;-5.24;100.00;96098.31;648434;212;31679;-74
2021/12/22 06:49:45;;;;;;;1.08;1.00;;;-6.00;1.40;;;-5.09;100.00;96093.78;646836;212;31525;-74
2021/12/22 06:52:26;;;;;;;3.47;1.50;;;-5.90;1.40;;;-4.76;100.00;96091.02;645845;216;42279;-75
2021/12/22 06:55:08;;;;;;;3.85;1.95;;;-5.60;1.40;;;-4.62;100.00;96091.43;647252;216;31602;-75
2021/12/22 06:57:50;;;;;;;2.10;0.70;;;-5.50;1.40;;;-4.59;100.00;96102.05;646476;216;42204;-73
2021/12/22 07:00:35;;;;;;;1.35;1.25;;;-5.40;1.40;;;-4.53;100.00;96099.75;631919;217;31833;-75
2021/12/22 07:03:15;;;;;;;2.90;1.30;;;-5.20;1.40;;;-4.60;100.00;96102.83;646715;216;32102;-75
2021/12/22 07:05:55;;;;;;;2.00;1.90;;;-5.20;1.40;;;-4.60;100.00;96104.26;639215;216;32280;-75
2021/12/22 07:08:37;;;;;;;5.25;1.52;;;-5.10;1.40;;;-4.60;100.00;96105.91;649321;216;32186;-74
2021/12/22 07:11:19;;;;;;;3.80;2.00;;;-5.10;1.40;;;-4.59;100.00;96107.69;647781;216;32162;-75
2021/12/22 07:14:00;;;;;;;4.10;1.90;;;-5.10;1.40;;;-4.60;100.00;96100.45;648793;212;42254;-75
2021/12/22 07:16:42;;;;;;;3.60;1.60;;;-5.10;1.40;;;-4.60;100.00;96097.81;647861;216;31790;-75
2021/12/22 07:19:24;;;;;;;1.62;1.40;;;-5.00;1.40;;;-4.42;100.00;96093.57;648618;216;31574;-74
2021/12/22 07:22:06;;;;;;;2.30;1.55;;;-5.00;1.40;;;-4.39;100.00;96092.83;650007;216;31571;-74
2021/12/22 07:24:48;;;;;;;3.10;1.17;;;-4.90;1.40;;;-4.50;100.00;96092.27;647020;216;31600;-75
2021/12/22 07:27:29;;;;;;;4.78;2.85;;;-4.90;1.40;;;-4.37;100.00;96096.06;623215;226;32012;-74
2021/12/22 07:30:13;;;;;;;1.98;1.20;;;-4.90;1.40;;;-4.21;100.00;96099.42;649088;216;31807;-74
2021/12/22 07:32:55;;;;;;;4.95;2.00;;;-4.80;1.40;;;-4.25;100.00;96108.65;645942;212;31575;-75
2021/12/22 07:36:01;;;;;;;0.90;0.90;;;-4.80;1.40;;;-4.23;100.00;96103.83;652435;212;31577;-74
2021/12/22 07:38:44;;;;;;;2.80;1.50;;;-4.80;1.40;;;-4.13;100.00;96098.87;622643;222;31946;-75
2021/12/22 07:41:25;;;;;;;1.15;1.02;;;-4.70;1.40;;;-4.31;100.00;96094.38;646888;212;31549;-75
2021/12/22 07:44:07;;;;;;;3.20;2.20;;;-4.80;1.40;;;-4.29;100.00;96095.69;619788;225;32046;-74
2021/12/22 07:46:52;;;;;;;2.65;1.95;;;-4.70;1.40;;;-4.30;100.00;96096.57;621340;222;32287;-75
2021/12/22 07:49:33;;;;;;;5.55;1.83;;;-4.70;1.40;;;-4.11;100.00;96097.00;650091;216;31564;-74
2021/12/22 07:52:15;;;;;;;2.20;1.30;;;-4.60;1.40;;;-4.10;100.00;96101.94;647920;216;31576;-75
2021/12/22 07:55:02;;;;;;;2.20;1.80;;;-4.60;1.40;;;-4.04;100.00;96094.26;648116;216;31567;-74
2021/12/22 07:57:44;;;;;;;1.37;1.25;;;-4.60;1.40;;;-3.91;100.00;96094.38;633647;221;31721;-74
2021/12/22 08:00:26;;;;;;;7.50;2.70;;;-4.50;1.40;;;-4.05;100.00;96098.92;620840;222;31921;-74
2021/12/22 08:03:08;;;;;;;5.05;2.95;;;-4.50;1.40;;;-4.08;100.00;96096.25;620049;226;31905;-75
2021/12/22 08:05:49;;;;;;;4.70;3.28;;;-4.50;1.40;;;-3.92;100.00;96098.58;639470;212;31701;-75
2021/12/22 08:08:31;;;;;;;4.50;2.47;;;-4.40;1.40;;;-3.94;100.00;96104.42;646779;216;31565;-75
2021/12/22 08:11:12;;;;;;;5.30;1.85;;;-4.40;1.40;;;-3.99;100.00;96112.70;646862;212;31516;-75
2021/12/22 08:13:54;;;;;;;3.42;2.10;;;-4.40;1.40;;;-3.81;100.00;96120.94;620482;226;31968;-74
2021/12/22 08:16:36;;;;;;;4.20;1.33;;;-4.30;1.40;;;-3.92;100.00;96122.75;619368;222;32047;-75
2021/12/22 08:19:17;;;;;;;2.22;1.50;;;-4.30;1.40;;;-3.78;100.00;96123.58;647570;216;31863;-74
2021/12/22 08:22:00;;;;;;;5.10;2.97;;;-4.30;1.40;;;-3.83;100.00;96121.66;648690;216;32278;-75
2021/12/22 08:24:42;;;;;;;3.78;2.00;;;-4.30;1.40;;;-3.91;100.00;96119.58;645931;216;32189;-75
2021/12/22 08:27:26;;;;;;;2.20;2.00;;;-4.30;1.40;;;-3.89;100.00;96115.67;617958;222;32051;-74
2021/12/22 08:30:08;;;;;;;3.30;2.83;;;-4.30;1.40;;;-3.75;100.00;96113.73;647885;212;32173;-74
2021/12/22 08:32:50;;;;;;;4.57;2.50;;;-4.20;1.40;;;-3.55;100.00;96121.58;649241;212;32142;-75
2021/12/22 08:41:27;;;;;;;2.20;1.77;;;-4.00;1.40;;;-3.77;100.00;96114.58;645895;216;31561;-74
2021/12/22 08:44:08;;;;;;;5.75;3.10;;;-4.20;1.40;;;-3.76;100.00;96120.21;647782;216;31559;-74
2021/12/22 08:46:50;;;;;;;5.70;2.47;;;-4.10;1.40;;;-3.66;100.00;96120.03;646709;212;31570;-74
2021/12/22 08:49:35;;;;;;;2.72;2.00;;;-4.00;1.40;;;-3.30;100.00;96111.72;653760;212;31921;-75
2021/12/22 08:52:17;;;;;;;4.20;3.72;;;-3.90;1.40;;;-3.28;100.00;96122.67;649336;216;31672;-74
2021/12/22 08:54:58;;;;;;;2.83;2.45;;;-3.80;1.40;;;-3.53;100.00;96126.16;620163;226;32075;-74
2021/12/22 08:57:43;;;;;;;3.12;1.77;;;-3.90;1.40;;;-3.52;100.00;96130.67;646684;212;32155;-75
2021/12/22 09:00:25;;;;;;;3.78;3.37;;;-3.90;1.40;;;-3.63;100.00;96126.46;620768;222;32084;-75
2021/12/22 09:03:10;;;;;;;5.40;3.85;;;-3.90;1.40;;;-3.30;100.00;96129.37;634918;221;31777;-73
2021/12/22 09:05:52;;;;;;;2.70;2.60;;;-3.80;1.40;;;-3.39;100.00;96126.99;637875;212;42532;-75
2021/12/22 09:08:34;;;;;;;5.50;3.95;;;-3.80;1.40;;;-3.09;100.00;96128.92;647933;212;31546;-75
2021/12/22 09:11:16;;;;;;;2.45;2.25;;;-3.70;1.40;;;-2.73;100.00;96132.47;624744;222;31976;-75
2021/12/22 09:14:03;;;;;;;2.65;2.45;;;-3.50;1.40;;;-3.05;100.00;96139.80;647450;216;31642;-74
2021/12/22 09:16:43;;;;;;;3.47;3.20;;;-3.60;1.40;;;-3.25;100.00;96146.66;648467;216;31572;-74
2021/12/22 09:19:25;;;;;;;2.08;1.87;;;-3.70;1.40;;;-3.29;100.00;96149.32;648543;212;31559;-75
2021/12/22 09:22:07;;;;;;;2.90;2.33;;;-3.70;1.40;;;-3.33;100.00;96148.14;651784;216;42558;-75
2021/12/22 09:24:49;;;;;;;5.50;3.75;;;-3.70;1.40;;;-3.04;100.00;96150.94;648659;216;32031;-74
2021/12/22 09:27:30;;;;;;;2.70;2.30;;;-3.50;1.40;;;-3.03;100.00;96154.44;623935;222;32369;-75
2021/12/22 09:30:15;;;;;;;5.07;3.05;;;-3.50;1.40;;;-3.35;100.00;96152.12;646058;216;31516;-75
2021/12/22 09:32:57;;;;;;;5.25;3.65;;;-3.70;1.40;;;-3.42;100.00;96144.61;649748;216;31599;-74
2021/12/22 09:35:52;;;;;;;4.15;2.60;;;-3.70;1.40;;;-3.29;100.00;96145.82;646893;212;31564;-75
2021/12/22 09:38:33;;;;;;;4.40;2.67;;;-3.60;1.40;;;-2.94;100.00;96145.81;639764;217;32017;-75
2021/12/22 09:41:14;;;;;;;3.70;3.08;;;-3.40;1.40;;;-2.92;100.00;96151.83;649561;212;31701;-75
2021/12/22 09:43:59;;;;;;;4.15;2.97;;;-3.40;1.40;;;-2.75;100.00;96154.34;618631;226;31990;-75
2021/12/22 09:52:18;;;;;;;3.87;3.40;;;-3.20;1.40;;;-2.62;100.00;96152.03;649028;216;32102;-74
2021/12/22 09:55:00;;;;;;;4.60;3.37;;;-3.20;1.40;;;-2.27;100.00;96149.67;648893;212;42212;-75
2021/12/22 09:57:40;;;;;;;2.87;2.67;;;-3.10;1.40;;;-2.63;100.00;96145.60;646367;212;31700;-75
2021/12/22 10:00:21;;;;;;;3.70;2.80;;;-3.20;1.40;;;-2.39;100.00;96141.46;650445;216;31610;-75
2021/12/22 10:03:06;;;;;;;4.47;4.18;;;-3.00;1.40;;;-2.26;100.00;96137.37;647405;216;31581;-75
2021/12/22 10:05:47;;;;;;;4.70;3.90;;;-2.90;1.40;;;-2.09;100.00;96133.23;645983;216;31559;-75
2021/12/22 10:08:29;;;;;;;4.30;3.60;;;-2.80;1.40;;;-2.21;100.00;96126.58;648084;212;31560;-75
2021/12/22 10:11:11;;;;;;;5.47;4.37;;;-2.80;1.40;;;-2.29;100.00;96119.70;647211;212;31610;-74
2021/12/22 10:13:52;;;;;;;4.32;3.70;;;-2.90;1.40;;;-1.58;100.00;96123.13;646784;212;31599;-75
2021/12/22 10:16:34;;;;;;;2.42;2.33;;;-2.50;1.40;;;-1.37;100.00;96118.80;647183;216;31598;-75
2021/12/22 10:19:15;;;;;;;4.25;3.37;;;-2.50;1.40;;;-2.66;100.00;96116.63;647007;216;31597;-74
2021/12/22 10:21:57;;;;;;;5.32;4.03;;;-3.20;1.40;;;-1.95;100.00;96104.66;647248;212;31735;-75
2021/12/22 10:24:39;;;;;;;5.18;4.62;;;-2.80;1.40;;;-2.12;100.00;96100.51;647593;216;31569;-75
2021/12/22 10:27:22;;;;;;;4.47;4.03;;;-2.90;1.40;;;-2.52;100.00;96098.31;619467;226;31882;-75
2021/12/22 10:30:21;;;;;;;6.05;3.92;;;-3.00;1.40;;;-1.79;100.00;96096.24;648160;216;31615;-75
2021/12/22 10:35:54;;;;;;;6.97;4.20;;;-2.70;1.40;;;-1.45;100.00;96091.16;646844;213;31612;-75
2021/12/22 10:38:36;;;;;;;5.27;4.73;;;-2.40;1.40;;;-1.92;100.00;96085.55;647046;212;38857;-75
2021/12/22 10:41:18;;;;;;;3.92;3.20;;;-2.60;1.40;;;-2.16;100.00;96081.63;647998;212;31668;-75
2021/12/22 10:43:59;;;;;;;5.55;4.65;;;-2.70;1.40;;;-2.04;100.00;96078.63;646554;216;31916;-75
2021/12/22 10:46:41;;;;;;;4.20;3.75;;;-2.50;1.40;;;-1.80;100.00;96074.25;619718;222;31942;-75
2021/12/22 10:49:23;;;;;;;3.03;2.83;;;-2.50;1.40;;;-1.82;100.00;96076.63;648253;216;31562;-75
2021/12/22 10:52:04;;;;;;;4.50;4.10;;;-2.50;1.40;;;-1.72;100.00;96069.83;621251;222;42599;-75
2021/12/22 10:54:47;;;;;;;5.75;2.83;;;-2.50;1.40;;;-1.49;100.00;96066.53;619643;226;31932;-75
2021/12/22 10:57:28;;;;;;;3.92;3.60;;;-2.30;1.40;;;-0.99;100.00;96066.22;619108;222;43232;-74
2021/12/22 11:00:17;;;;;;;3.77;3.47;;;-2.10;1.40;;;-0.58;100.00;96059.31;647348;216;31694;-73
2021/12/22 11:03:03;;;;;;;4.45;3.80;;;-1.70;1.40;;;-0.53;100.00;96060.78;648026;216;31620;-76
2021/12/22 11:05:52;;;;;;;7.07;4.10;;;-2.00;1.40;;;-0.62;100.00;96056.22;646479;216;42745;-78
2021/12/22 11:08:32;;;;;;;3.45;3.00;;;-2.00;1.40;;;-0.25;100.00;96051.94;645853;212;31583;-74
2021/12/22 11:11:16;;;;;;;5.10;4.60;;;-1.40;1.40;;;0.15;100.00;96045.37;647259;216;31606;-76
2021/12/22 11:16:32;;;;;;;6.00;5.12;;;-0.60;1.40;;;1.04;100.00;96039.88;647313;212;31619;-76
2021/12/22 11:19:17;;;;;;;6.90;5.28;;;-0.10;1.40;;;2.13;100.00;96034.55;619312;222;31917;-77
2021/12/22 11:22:11;;;;;;;5.22;4.70;;;1.90;1.40;;;4.99;100.00;96021.76;648052;216;31639;-76
2021/12/22 11:24:50;;;;;;;7.40;4.93;;;3.60;1.40;;;4.23;93.05;96019.08;646783;216;31619;-76
2021/12/22 11:27:31;;;;;;;5.53;4.20;;;3.10;1.40;;;6.31;91.80;96009.97;648021;212;43398;-76
2021/12/22 11:30:15;;;;;;;7.05;5.35;;;5.00;1.40;;;8.30;78.08;95996.21;647032;216;31569;-76
2021/12/22 11:32:57;;;;;;;6.47;4.97;;;5.60;1.40;;;10.89;83.48;95996.08;619291;226;31894;-77
2021/12/22 11:35:51;;;;;;;6.90;4.93;;;5.20;1.40;;;10.31;89.68;95999.84;645972;216;31598;-77
2021/12/22 11:38:33;;;;;;;5.95;4.87;;;4.50;1.40;;;9.75;83.33;95999.30;647750;216;42251;-75
2021/12/22 11:41:18;;;;;;;6.60;4.90;;;4.50;1.40;;;12.11;78.66;96001.45;648272;216;31585;-75
2021/12/22 11:43:59;;;;;;;8.30;5.40;;;4.80;1.40;;;11.73;78.82;95994.99;648798;213;31664;-77
2021/12/22 11:46:41;;;;;;;6.87;5.40;;;5.40;1.40;;;11.30;73.80;95996.82;647129;216;31530;-77
2021/12/22 11:49:23;;;;;;;10.88;5.53;;;3.40;1.40;;;7.96;69.76;95997.47;648830;212;31557;-77
2021/12/22 11:52:32;;;;;;;8.75;5.97;;;2.50;1.40;;;6.94;81.00;95999.89;647741;212;31576;-76
2021/12/22 11:55:19;;;;;;;6.82;4.78;;;1.60;1.40;;;6.16;82.34;96001.23;646816;216;31571;-77